sensor_id;sensor_type;location;lat;lon;timestamp;temperature;humidity
5304;DHT22;2674;49.722;10.892;2024-03-07T00:01:05;2.90;99.90
5304;DHT22;2674;49.722;10.892;2024-03-07T00:03:31;2.80;99.90
5304;DHT22;2674;49.722;10.892;2024-03-07T00:05:56;2.70;99.90
5304;DHT22;2674;49.722;10.892;2024-03-07T00:08:22;2.70;99.90
5304;DHT22;2674;49.722;10.892;2024-03-07T00:10:48;2.50;99.90
5304;DHT22;2674;49.722;10.892;2024-03-07T00:13:14;2.50;99.90
5304;DHT22;2674;49.722;10.892;2024-03-07T00:15:40;2.40;99.90
5304;DHT22;2674;49.722;10.892;2024-03-07T00:18:07;2.30;99.90
5304;DHT22;2674;49.722;10.892;2024-03-07T00:20:33;2.30;99.90
5304;DHT22;2674;49.722;10.892;2024-03-07T00:22:58;2.20;99.90
5304;DHT22;2674;49.722;10.892;2024-03-07T00:25:24;2.20;99.90
5304;DHT22;2674;49.722;10.892;2024-03-07T00:27:51;2.10;99.90
5304;DHT22;2674;49.722;10.892;2024-03-07T00:30:19;2.10;99.90
5304;DHT22;2674;49.722;10.892;2024-03-07T00:32:48;2.00;99.90
5304;DHT22;2674;49.722;10.892;2024-03-07T00:35:14;2.00;99.90
5304;DHT22;2674;49.722;10.892;2024-03-07T00:37:40;1.90;99.90
5304;DHT22;2674;49.722;10.892;2024-03-07T00:40:07;1.80;99.90
5304;DHT22;2674;49.722;10.892;2024-03-07T00:42:33;1.70;99.90
5304;DHT22;2674;49.722;10.892;2024-03-07T00:44:59;1.60;99.90
5304;DHT22;2674;49.722;10.892;2024-03-07T00:47:25;1.70;99.90
5304;DHT22;2674;49.722;10.892;2024-03-07T00:49:50;1.60;99.90
5304;DHT22;2674;49.722;10.892;2024-03-07T00:52:16;1.60;99.90
5304;DHT22;2674;49.722;10.892;2024-03-07T00:54:42;1.70;99.90
5304;DHT22;2674;49.722;10.892;2024-03-07T00:57:08;1.60;99.90
5304;DHT22;2674;49.722;10.892;2024-03-07T00:59:34;1.70;99.90
5304;DHT22;2674;49.722;10.892;2024-03-07T01:02:00;1.70;99.90
5304;DHT22;2674;49.722;10.892;2024-03-07T01:04:26;1.70;99.90
5304;DHT22;2674;49.722;10.892;2024-03-07T01:06:59;1.70;99.90
5304;DHT22;2674;49.722;10.892;2024-03-07T01:09:26;1.60;99.90
5304;DHT22;2674;49.722;10.892;2024-03-07T01:11:54;1.50;99.90
5304;DHT22;2674;49.722;10.892;2024-03-07T01:14:21;1.60;99.90
5304;DHT22;2674;49.722;10.892;2024-03-07T01:16:46;1.50;99.90
5304;DHT22;2674;49.722;10.892;2024-03-07T01:19:12;1.50;99.90
5304;DHT22;2674;49.722;10.892;2024-03-07T01:21:39;1.40;99.90
5304;DHT22;2674;49.722;10.892;2024-03-07T01:24:05;1.40;99.90
5304;DHT22;2674;49.722;10.892;2024-03-07T01:26:31;1.40;99.90
5304;DHT22;2674;49.722;10.892;2024-03-07T01:28:59;1.30;99.90
5304;DHT22;2674;49.722;10.892;2024-03-07T01:31:25;1.40;99.90
5304;DHT22;2674;49.722;10.892;2024-03-07T01:33:52;1.40;99.90
5304;DHT22;2674;49.722;10.892;2024-03-07T01:36:19;1.40;99.90
5304;DHT22;2674;49.722;10.892;2024-03-07T01:38:46;1.40;99.90
5304;DHT22;2674;49.722;10.892;2024-03-07T01:41:12;1.40;99.90
5304;DHT22;2674;49.722;10.892;2024-03-07T01:43:40;1.50;99.90
5304;DHT22;2674;49.722;10.892;2024-03-07T01:46:06;1.50;99.90
5304;DHT22;2674;49.722;10.892;2024-03-07T01:48:32;1.60;99.90
5304;DHT22;2674;49.722;10.892;2024-03-07T01:51:01;1.60;99.90
5304;DHT22;2674;49.722;10.892;2024-03-07T01:53:31;1.60;99.90
5304;DHT22;2674;49.722;10.892;2024-03-07T01:55:59;1.60;99.90
5304;DHT22;2674;49.722;10.892;2024-03-07T01:58:25;1.70;99.90
5304;DHT22;2674;49.722;10.892;2024-03-07T02:00:51;1.80;99.90
5304;DHT22;2674;49.722;10.892;2024-03-07T02:03:17;1.80;99.90
5304;DHT22;2674;49.722;10.892;2024-03-07T02:05:43;1.80;99.90
5304;DHT22;2674;49.722;10.892;2024-03-07T02:08:10;1.90;99.90
5304;DHT22;2674;49.722;10.892;2024-03-07T02:10:36;1.90;99.90
5304;DHT22;2674;49.722;10.892;2024-03-07T02:13:02;2.00;99.90
5304;DHT22;2674;49.722;10.892;2024-03-07T02:15:28;2.10;99.90
5304;DHT22;2674;49.722;10.892;2024-03-07T02:17:54;2.10;99.90
5304;DHT22;2674;49.722;10.892;2024-03-07T02:20:20;2.10;99.90
5304;DHT22;2674;49.722;10.892;2024-03-07T02:22:46;2.20;99.90
5304;DHT22;2674;49.722;10.892;2024-03-07T02:25:12;2.20;99.90
5304;DHT22;2674;49.722;10.892;2024-03-07T02:27:38;2.20;99.90
5304;DHT22;2674;49.722;10.892;2024-03-07T02:30:05;2.30;99.90
5304;DHT22;2674;49.722;10.892;2024-03-07T02:32:34;2.30;99.90
5304;DHT22;2674;49.722;10.892;2024-03-07T02:35:00;2.30;99.90
5304;DHT22;2674;49.722;10.892;2024-03-07T02:37:26;2.30;99.90
5304;DHT22;2674;49.722;10.892;2024-03-07T02:39:52;2.30;99.90
5304;DHT22;2674;49.722;10.892;2024-03-07T02:42:18;2.20;99.90
5304;DHT22;2674;49.722;10.892;2024-03-07T02:44:43;2.20;99.90
5304;DHT22;2674;49.722;10.892;2024-03-07T02:47:10;2.20;99.90
5304;DHT22;2674;49.722;10.892;2024-03-07T02:49:36;2.10;99.90
5304;DHT22;2674;49.722;10.892;2024-03-07T02:52:01;2.20;99.90
5304;DHT22;2674;49.722;10.892;2024-03-07T02:54:27;2.20;99.90
5304;DHT22;2674;49.722;10.892;2024-03-07T02:56:53;2.20;99.90
5304;DHT22;2674;49.722;10.892;2024-03-07T02:59:19;2.20;99.90
5304;DHT22;2674;49.722;10.892;2024-03-07T03:01:44;2.20;99.90
5304;DHT22;2674;49.722;10.892;2024-03-07T03:04:10;2.30;99.90
5304;DHT22;2674;49.722;10.892;2024-03-07T03:06:36;2.30;99.90
5304;DHT22;2674;49.722;10.892;2024-03-07T03:09:02;2.30;99.90
5304;DHT22;2674;49.722;10.892;2024-03-07T03:11:30;2.30;99.90
5304;DHT22;2674;49.722;10.892;2024-03-07T03:13:56;2.30;99.90
5304;DHT22;2674;49.722;10.892;2024-03-07T03:16:21;2.30;99.90
5304;DHT22;2674;49.722;10.892;2024-03-07T03:18:47;2.30;99.90
5304;DHT22;2674;49.722;10.892;2024-03-07T03:21:14;2.30;99.90
5304;DHT22;2674;49.722;10.892;2024-03-07T03:23:41;2.30;99.90
5304;DHT22;2674;49.722;10.892;2024-03-07T03:26:07;2.30;99.90
5304;DHT22;2674;49.722;10.892;2024-03-07T03:28:33;2.40;99.90
5304;DHT22;2674;49.722;10.892;2024-03-07T03:30:58;2.40;99.90
5304;DHT22;2674;49.722;10.892;2024-03-07T03:33:24;2.40;99.90
5304;DHT22;2674;49.722;10.892;2024-03-07T03:35:50;2.40;99.90
5304;DHT22;2674;49.722;10.892;2024-03-07T03:38:16;2.40;99.90
5304;DHT22;2674;49.722;10.892;2024-03-07T03:40:43;2.40;99.90
5304;DHT22;2674;49.722;10.892;2024-03-07T03:43:10;2.40;99.90
5304;DHT22;2674;49.722;10.892;2024-03-07T03:45:35;2.30;99.90
5304;DHT22;2674;49.722;10.892;2024-03-07T03:48:02;2.30;99.90
5304;DHT22;2674;49.722;10.892;2024-03-07T03:50:27;2.20;99.90
5304;DHT22;2674;49.722;10.892;2024-03-07T03:52:54;2.10;99.90
5304;DHT22;2674;49.722;10.892;2024-03-07T03:55:20;2.10;99.90
5304;DHT22;2674;49.722;10.892;2024-03-07T03:57:47;2.00;99.90
5304;DHT22;2674;49.722;10.892;2024-03-07T04:00:13;1.90;99.90
5304;DHT22;2674;49.722;10.892;2024-03-07T04:02:44;1.80;99.90
5304;DHT22;2674;49.722;10.892;2024-03-07T04:05:13;1.80;99.90
5304;DHT22;2674;49.722;10.892;2024-03-07T04:07:40;1.70;99.90
5304;DHT22;2674;49.722;10.892;2024-03-07T04:10:08;1.60;99.90
5304;DHT22;2674;49.722;10.892;2024-03-07T04:12:40;1.50;99.90
5304;DHT22;2674;49.722;10.892;2024-03-07T04:15:08;1.40;99.90
5304;DHT22;2674;49.722;10.892;2024-03-07T04:17:35;1.30;99.90
5304;DHT22;2674;49.722;10.892;2024-03-07T04:20:04;1.20;99.90
5304;DHT22;2674;49.722;10.892;2024-03-07T04:22:36;1.20;99.90
5304;DHT22;2674;49.722;10.892;2024-03-07T04:25:06;1.10;99.90
5304;DHT22;2674;49.722;10.892;2024-03-07T04:27:36;1.00;99.90
5304;DHT22;2674;49.722;10.892;2024-03-07T04:30:06;1.00;99.90
5304;DHT22;2674;49.722;10.892;2024-03-07T04:32:32;0.90;99.90
5304;DHT22;2674;49.722;10.892;2024-03-07T04:35:00;0.90;99.90
5304;DHT22;2674;49.722;10.892;2024-03-07T04:37:26;0.80;99.90
5304;DHT22;2674;49.722;10.892;2024-03-07T04:39:54;0.80;99.90
5304;DHT22;2674;49.722;10.892;2024-03-07T04:42:21;0.70;99.90
5304;DHT22;2674;49.722;10.892;2024-03-07T04:44:46;0.70;99.90
5304;DHT22;2674;49.722;10.892;2024-03-07T04:47:12;0.60;99.90
5304;DHT22;2674;49.722;10.892;2024-03-07T04:49:38;0.60;99.90
5304;DHT22;2674;49.722;10.892;2024-03-07T04:52:06;0.50;99.90
5304;DHT22;2674;49.722;10.892;2024-03-07T04:54:32;0.50;99.90
5304;DHT22;2674;49.722;10.892;2024-03-07T04:56:59;0.50;99.90
5304;DHT22;2674;49.722;10.892;2024-03-07T04:59:25;0.40;99.90
5304;DHT22;2674;49.722;10.892;2024-03-07T05:01:51;0.40;99.90
5304;DHT22;2674;49.722;10.892;2024-03-07T05:04:17;0.40;99.90
5304;DHT22;2674;49.722;10.892;2024-03-07T05:06:44;0.30;99.90
5304;DHT22;2674;49.722;10.892;2024-03-07T05:09:13;0.30;99.90
5304;DHT22;2674;49.722;10.892;2024-03-07T05:11:49;0.20;99.90
5304;DHT22;2674;49.722;10.892;2024-03-07T05:14:17;0.20;99.90
5304;DHT22;2674;49.722;10.892;2024-03-07T05:16:43;0.20;99.90
5304;DHT22;2674;49.722;10.892;2024-03-07T05:19:09;0.20;99.90
5304;DHT22;2674;49.722;10.892;2024-03-07T05:21:35;0.10;99.90
5304;DHT22;2674;49.722;10.892;2024-03-07T05:24:09;0.10;99.90
5304;DHT22;2674;49.722;10.892;2024-03-07T05:26:35;0.10;99.90
5304;DHT22;2674;49.722;10.892;2024-03-07T05:29:07;0.10;99.90
5304;DHT22;2674;49.722;10.892;2024-03-07T05:31:37;0.10;99.90
5304;DHT22;2674;49.722;10.892;2024-03-07T05:34:04;0.10;99.90
5304;DHT22;2674;49.722;10.892;2024-03-07T05:36:34;0.10;99.90
5304;DHT22;2674;49.722;10.892;2024-03-07T05:39:00;0.10;99.90
5304;DHT22;2674;49.722;10.892;2024-03-07T05:41:31;0.20;99.90
5304;DHT22;2674;49.722;10.892;2024-03-07T05:43:57;0.20;99.90
5304;DHT22;2674;49.722;10.892;2024-03-07T05:46:23;0.30;99.90
5304;DHT22;2674;49.722;10.892;2024-03-07T05:48:49;0.30;99.90
5304;DHT22;2674;49.722;10.892;2024-03-07T05:51:18;0.30;99.90
5304;DHT22;2674;49.722;10.892;2024-03-07T05:53:44;0.40;99.90
5304;DHT22;2674;49.722;10.892;2024-03-07T05:56:09;0.40;99.90
5304;DHT22;2674;49.722;10.892;2024-03-07T05:58:35;0.50;99.90
5304;DHT22;2674;49.722;10.892;2024-03-07T06:01:01;0.60;99.90
5304;DHT22;2674;49.722;10.892;2024-03-07T06:03:27;0.60;99.90
5304;DHT22;2674;49.722;10.892;2024-03-07T06:05:53;0.70;99.90
5304;DHT22;2674;49.722;10.892;2024-03-07T06:08:20;0.80;99.90
5304;DHT22;2674;49.722;10.892;2024-03-07T06:10:47;0.80;99.90
5304;DHT22;2674;49.722;10.892;2024-03-07T06:13:15;0.90;99.90
5304;DHT22;2674;49.722;10.892;2024-03-07T06:15:45;0.90;99.90
5304;DHT22;2674;49.722;10.892;2024-03-07T06:18:12;1.00;99.90
5304;DHT22;2674;49.722;10.892;2024-03-07T06:20:40;1.00;99.90
5304;DHT22;2674;49.722;10.892;2024-03-07T06:23:07;1.00;99.90
5304;DHT22;2674;49.722;10.892;2024-03-07T06:25:33;1.10;99.90
5304;DHT22;2674;49.722;10.892;2024-03-07T06:28:03;1.10;99.90
5304;DHT22;2674;49.722;10.892;2024-03-07T06:30:40;1.20;99.90
5304;DHT22;2674;49.722;10.892;2024-03-07T06:33:07;1.20;99.90
5304;DHT22;2674;49.722;10.892;2024-03-07T06:35:33;1.20;99.90
5304;DHT22;2674;49.722;10.892;2024-03-07T06:38:06;1.30;99.90
5304;DHT22;2674;49.722;10.892;2024-03-07T06:40:32;1.40;99.90
5304;DHT22;2674;49.722;10.892;2024-03-07T06:43:01;1.40;99.90
5304;DHT22;2674;49.722;10.892;2024-03-07T06:45:30;1.50;99.90
5304;DHT22;2674;49.722;10.892;2024-03-07T06:47:56;1.60;99.90
5304;DHT22;2674;49.722;10.892;2024-03-07T06:50:22;1.80;99.90
5304;DHT22;2674;49.722;10.892;2024-03-07T06:52:48;1.90;99.90
5304;DHT22;2674;49.722;10.892;2024-03-07T06:55:16;2.00;99.90
5304;DHT22;2674;49.722;10.892;2024-03-07T06:57:45;2.10;99.90
5304;DHT22;2674;49.722;10.892;2024-03-07T07:00:12;2.20;99.90
5304;DHT22;2674;49.722;10.892;2024-03-07T07:02:38;2.20;99.90
5304;DHT22;2674;49.722;10.892;2024-03-07T07:05:06;2.30;99.90
5304;DHT22;2674;49.722;10.892;2024-03-07T07:07:40;2.30;99.90
5304;DHT22;2674;49.722;10.892;2024-03-07T07:10:08;2.40;99.90
5304;DHT22;2674;49.722;10.892;2024-03-07T07:12:37;2.50;99.90
5304;DHT22;2674;49.722;10.892;2024-03-07T07:15:03;2.50;99.90
5304;DHT22;2674;49.722;10.892;2024-03-07T07:17:30;2.60;99.90
5304;DHT22;2674;49.722;10.892;2024-03-07T07:19:58;2.70;99.90
5304;DHT22;2674;49.722;10.892;2024-03-07T07:22:25;2.80;99.90
5304;DHT22;2674;49.722;10.892;2024-03-07T07:24:51;2.90;99.90
5304;DHT22;2674;49.722;10.892;2024-03-07T07:27:17;3.00;99.90
5304;DHT22;2674;49.722;10.892;2024-03-07T07:29:44;3.00;99.90
5304;DHT22;2674;49.722;10.892;2024-03-07T07:32:11;3.10;99.90
5304;DHT22;2674;49.722;10.892;2024-03-07T07:34:39;3.20;99.90
5304;DHT22;2674;49.722;10.892;2024-03-07T07:37:05;3.30;99.90
5304;DHT22;2674;49.722;10.892;2024-03-07T07:39:31;3.40;99.90
5304;DHT22;2674;49.722;10.892;2024-03-07T07:41:57;3.40;99.90
5304;DHT22;2674;49.722;10.892;2024-03-07T07:44:23;3.40;99.90
5304;DHT22;2674;49.722;10.892;2024-03-07T07:46:51;3.40;99.90
5304;DHT22;2674;49.722;10.892;2024-03-07T07:49:17;3.30;99.90
5304;DHT22;2674;49.722;10.892;2024-03-07T07:51:43;3.30;99.90
5304;DHT22;2674;49.722;10.892;2024-03-07T07:54:08;3.30;99.90
5304;DHT22;2674;49.722;10.892;2024-03-07T07:56:35;3.30;99.90
5304;DHT22;2674;49.722;10.892;2024-03-07T07:59:01;3.40;99.90
5304;DHT22;2674;49.722;10.892;2024-03-07T08:01:30;3.70;99.90
5304;DHT22;2674;49.722;10.892;2024-03-07T08:03:59;4.30;99.90
5304;DHT22;2674;49.722;10.892;2024-03-07T08:06:25;4.60;99.90
5304;DHT22;2674;49.722;10.892;2024-03-07T08:08:51;4.80;99.90
5304;DHT22;2674;49.722;10.892;2024-03-07T08:11:17;4.80;99.90
5304;DHT22;2674;49.722;10.892;2024-03-07T08:13:46;4.80;99.90
5304;DHT22;2674;49.722;10.892;2024-03-07T08:16:15;4.90;99.90
5304;DHT22;2674;49.722;10.892;2024-03-07T08:18:42;4.80;99.90
5304;DHT22;2674;49.722;10.892;2024-03-07T08:21:07;4.50;68.00
5304;DHT22;2674;49.722;10.892;2024-03-07T08:23:37;4.40;99.90
5304;DHT22;2674;49.722;10.892;2024-03-07T08:26:03;4.20;71.10
5304;DHT22;2674;49.722;10.892;2024-03-07T08:28:31;4.10;79.90
5304;DHT22;2674;49.722;10.892;2024-03-07T08:30:57;4.10;99.90
5304;DHT22;2674;49.722;10.892;2024-03-07T08:33:24;4.20;99.90
5304;DHT22;2674;49.722;10.892;2024-03-07T08:35:49;4.30;99.90
5304;DHT22;2674;49.722;10.892;2024-03-07T08:38:18;4.30;99.90
5304;DHT22;2674;49.722;10.892;2024-03-07T08:40:44;4.40;94.10
5304;DHT22;2674;49.722;10.892;2024-03-07T08:43:10;4.40;99.90
5304;DHT22;2674;49.722;10.892;2024-03-07T08:45:35;4.50;99.90
5304;DHT22;2674;49.722;10.892;2024-03-07T08:48:02;4.60;99.90
5304;DHT22;2674;49.722;10.892;2024-03-07T08:50:35;4.70;99.90
5304;DHT22;2674;49.722;10.892;2024-03-07T08:53:03;4.80;99.90
5304;DHT22;2674;49.722;10.892;2024-03-07T08:55:32;4.80;90.70
5304;DHT22;2674;49.722;10.892;2024-03-07T08:57:58;4.80;99.90
5304;DHT22;2674;49.722;10.892;2024-03-07T09:00:24;4.80;99.40
5304;DHT22;2674;49.722;10.892;2024-03-07T09:02:51;4.90;99.90
5304;DHT22;2674;49.722;10.892;2024-03-07T09:05:19;5.00;99.90
5304;DHT22;2674;49.722;10.892;2024-03-07T09:07:46;5.10;99.90
5304;DHT22;2674;49.722;10.892;2024-03-07T09:10:15;5.20;99.90
5304;DHT22;2674;49.722;10.892;2024-03-07T09:12:41;5.30;99.90
5304;DHT22;2674;49.722;10.892;2024-03-07T09:15:07;5.40;99.90
5304;DHT22;2674;49.722;10.892;2024-03-07T09:17:36;5.40;98.90
5304;DHT22;2674;49.722;10.892;2024-03-07T09:20:05;5.50;99.90
5304;DHT22;2674;49.722;10.892;2024-03-07T09:22:32;5.60;99.90
5304;DHT22;2674;49.722;10.892;2024-03-07T09:24:58;5.70;99.90
5304;DHT22;2674;49.722;10.892;2024-03-07T09:27:24;5.80;99.90
5304;DHT22;2674;49.722;10.892;2024-03-07T09:29:50;5.80;77.00
5304;DHT22;2674;49.722;10.892;2024-03-07T09:32:17;5.80;97.10
5304;DHT22;2674;49.722;10.892;2024-03-07T09:34:43;6.00;86.30
5304;DHT22;2674;49.722;10.892;2024-03-07T09:37:09;6.00;94.40
5304;DHT22;2674;49.722;10.892;2024-03-07T09:39:34;6.10;92.80
5304;DHT22;2674;49.722;10.892;2024-03-07T09:42:07;6.20;86.90
5304;DHT22;2674;49.722;10.892;2024-03-07T09:44:39;6.40;51.30
5304;DHT22;2674;49.722;10.892;2024-03-07T09:47:06;6.40;10.40
5304;DHT22;2674;49.722;10.892;2024-03-07T09:49:33;6.40;1.00
5304;DHT22;2674;49.722;10.892;2024-03-07T09:52:04;6.50;20.80
5304;DHT22;2674;49.722;10.892;2024-03-07T09:54:34;6.50;23.00
5304;DHT22;2674;49.722;10.892;2024-03-07T09:57:02;6.70;1.00
5304;DHT22;2674;49.722;10.892;2024-03-07T09:59:30;6.70;1.00
5304;DHT22;2674;49.722;10.892;2024-03-07T10:01:59;6.90;1.00
5304;DHT22;2674;49.722;10.892;2024-03-07T10:04:35;7.00;1.00
5304;DHT22;2674;49.722;10.892;2024-03-07T10:07:03;7.00;1.00
5304;DHT22;2674;49.722;10.892;2024-03-07T10:09:29;7.20;1.00
5304;DHT22;2674;49.722;10.892;2024-03-07T10:12:00;7.40;1.00
5304;DHT22;2674;49.722;10.892;2024-03-07T10:14:32;7.50;1.00
5304;DHT22;2674;49.722;10.892;2024-03-07T10:16:58;7.50;1.00
5304;DHT22;2674;49.722;10.892;2024-03-07T10:19:24;7.60;1.00
5304;DHT22;2674;49.722;10.892;2024-03-07T10:21:50;7.70;1.00
5304;DHT22;2674;49.722;10.892;2024-03-07T10:24:17;7.80;1.00
5304;DHT22;2674;49.722;10.892;2024-03-07T10:26:49;7.80;1.00
5304;DHT22;2674;49.722;10.892;2024-03-07T10:29:17;7.70;1.00
5304;DHT22;2674;49.722;10.892;2024-03-07T10:31:44;7.70;1.00
5304;DHT22;2674;49.722;10.892;2024-03-07T10:34:11;7.70;1.00
5304;DHT22;2674;49.722;10.892;2024-03-07T10:36:37;7.70;1.00
5304;DHT22;2674;49.722;10.892;2024-03-07T10:39:05;7.80;1.00
5304;DHT22;2674;49.722;10.892;2024-03-07T10:41:47;7.80;1.00
5304;DHT22;2674;49.722;10.892;2024-03-07T10:44:33;7.90;1.00
5304;DHT22;2674;49.722;10.892;2024-03-07T10:47:04;7.90;1.00
5304;DHT22;2674;49.722;10.892;2024-03-07T10:49:34;7.90;1.00
5304;DHT22;2674;49.722;10.892;2024-03-07T10:52:06;7.80;1.00
5304;DHT22;2674;49.722;10.892;2024-03-07T10:54:53;7.80;1.00
5304;DHT22;2674;49.722;10.892;2024-03-07T10:57:46;7.70;1.00
5304;DHT22;2674;49.722;10.892;2024-03-07T11:00:13;7.80;1.00
5304;DHT22;2674;49.722;10.892;2024-03-07T11:03:02;7.90;1.00
5304;DHT22;2674;49.722;10.892;2024-03-07T11:05:33;8.00;1.00
5304;DHT22;2674;49.722;10.892;2024-03-07T11:08:03;8.00;1.00
5304;DHT22;2674;49.722;10.892;2024-03-07T11:10:37;8.10;1.00
5304;DHT22;2674;49.722;10.892;2024-03-07T11:13:08;8.20;1.00
5304;DHT22;2674;49.722;10.892;2024-03-07T11:15:43;8.20;1.00
5304;DHT22;2674;49.722;10.892;2024-03-07T11:18:10;8.30;1.00
5304;DHT22;2674;49.722;10.892;2024-03-07T11:20:39;8.20;1.00
5304;DHT22;2674;49.722;10.892;2024-03-07T11:25:55;8.30;1.00
5304;DHT22;2674;49.722;10.892;2024-03-07T11:28:29;8.30;1.00
5304;DHT22;2674;49.722;10.892;2024-03-07T11:31:13;8.30;1.00
5304;DHT22;2674;49.722;10.892;2024-03-07T11:33:40;8.30;1.00
5304;DHT22;2674;49.722;10.892;2024-03-07T11:36:08;8.20;1.00
5304;DHT22;2674;49.722;10.892;2024-03-07T11:38:35;8.20;1.00
5304;DHT22;2674;49.722;10.892;2024-03-07T11:41:01;8.30;1.00
5304;DHT22;2674;49.722;10.892;2024-03-07T11:43:38;8.40;1.00
5304;DHT22;2674;49.722;10.892;2024-03-07T11:46:08;8.40;1.00
5304;DHT22;2674;49.722;10.892;2024-03-07T11:48:42;8.40;1.00
5304;DHT22;2674;49.722;10.892;2024-03-07T11:51:17;8.30;1.00
5304;DHT22;2674;49.722;10.892;2024-03-07T11:53:43;8.30;1.00
5304;DHT22;2674;49.722;10.892;2024-03-07T11:56:09;8.40;1.00
5304;DHT22;2674;49.722;10.892;2024-03-07T11:58:43;8.50;1.00
5304;DHT22;2674;49.722;10.892;2024-03-07T12:01:10;8.60;1.00
5304;DHT22;2674;49.722;10.892;2024-03-07T12:03:39;8.60;1.00
5304;DHT22;2674;49.722;10.892;2024-03-07T12:06:05;8.60;1.00
5304;DHT22;2674;49.722;10.892;2024-03-07T12:08:31;8.40;1.00
5304;DHT22;2674;49.722;10.892;2024-03-07T12:10:57;8.40;1.00
5304;DHT22;2674;49.722;10.892;2024-03-07T12:13:23;8.40;1.00
5304;DHT22;2674;49.722;10.892;2024-03-07T12:15:50;8.30;1.00
5304;DHT22;2674;49.722;10.892;2024-03-07T12:18:22;8.30;1.00
5304;DHT22;2674;49.722;10.892;2024-03-07T12:20:48;8.30;1.00
5304;DHT22;2674;49.722;10.892;2024-03-07T12:23:22;8.30;1.00
5304;DHT22;2674;49.722;10.892;2024-03-07T12:26:02;8.30;1.00
5304;DHT22;2674;49.722;10.892;2024-03-07T12:28:28;8.40;1.00
5304;DHT22;2674;49.722;10.892;2024-03-07T12:30:59;8.20;1.00
5304;DHT22;2674;49.722;10.892;2024-03-07T12:33:29;8.10;1.00
5304;DHT22;2674;49.722;10.892;2024-03-07T12:35:55;8.00;1.00
5304;DHT22;2674;49.722;10.892;2024-03-07T12:38:31;8.00;1.00
5304;DHT22;2674;49.722;10.892;2024-03-07T12:41:09;7.90;1.00
5304;DHT22;2674;49.722;10.892;2024-03-07T12:43:42;7.90;1.00
5304;DHT22;2674;49.722;10.892;2024-03-07T12:46:10;7.90;1.00
5304;DHT22;2674;49.722;10.892;2024-03-07T12:48:38;7.90;1.00
5304;DHT22;2674;49.722;10.892;2024-03-07T12:51:04;7.90;1.00
5304;DHT22;2674;49.722;10.892;2024-03-07T12:53:31;7.90;1.00
5304;DHT22;2674;49.722;10.892;2024-03-07T12:55:57;8.00;1.00
5304;DHT22;2674;49.722;10.892;2024-03-07T12:58:23;8.00;1.00
5304;DHT22;2674;49.722;10.892;2024-03-07T13:00:52;7.90;1.00
5304;DHT22;2674;49.722;10.892;2024-03-07T13:03:21;7.90;1.00
5304;DHT22;2674;49.722;10.892;2024-03-07T13:05:47;7.90;1.00
5304;DHT22;2674;49.722;10.892;2024-03-07T13:08:13;7.80;1.00
5304;DHT22;2674;49.722;10.892;2024-03-07T13:10:42;7.80;1.00
5304;DHT22;2674;49.722;10.892;2024-03-07T13:13:08;7.80;1.00
5304;DHT22;2674;49.722;10.892;2024-03-07T13:15:40;7.90;1.00
5304;DHT22;2674;49.722;10.892;2024-03-07T13:18:08;7.90;1.00
5304;DHT22;2674;49.722;10.892;2024-03-07T13:20:37;7.90;1.00
5304;DHT22;2674;49.722;10.892;2024-03-07T13:23:03;7.90;1.00
5304;DHT22;2674;49.722;10.892;2024-03-07T13:25:29;7.80;1.00
5304;DHT22;2674;49.722;10.892;2024-03-07T13:28:05;7.70;1.00
5304;DHT22;2674;49.722;10.892;2024-03-07T13:30:37;7.70;1.00
5304;DHT22;2674;49.722;10.892;2024-03-07T13:33:03;7.60;1.00
5304;DHT22;2674;49.722;10.892;2024-03-07T13:35:30;7.60;1.00
5304;DHT22;2674;49.722;10.892;2024-03-07T13:37:56;7.60;1.00
5304;DHT22;2674;49.722;10.892;2024-03-07T13:40:26;7.60;1.00
5304;DHT22;2674;49.722;10.892;2024-03-07T13:42:59;7.70;1.00
5304;DHT22;2674;49.722;10.892;2024-03-07T13:45:34;7.50;1.00
5304;DHT22;2674;49.722;10.892;2024-03-07T13:48:07;7.60;1.00
5304;DHT22;2674;49.722;10.892;2024-03-07T13:50:34;7.60;1.00
5304;DHT22;2674;49.722;10.892;2024-03-07T13:53:00;7.60;1.00
5304;DHT22;2674;49.722;10.892;2024-03-07T14:32:00;7.40;1.00
5304;DHT22;2674;49.722;10.892;2024-03-07T14:34:47;7.40;1.00
5304;DHT22;2674;49.722;10.892;2024-03-07T14:37:23;7.40;1.00
5304;DHT22;2674;49.722;10.892;2024-03-07T14:39:51;7.50;1.00
5304;DHT22;2674;49.722;10.892;2024-03-07T14:42:19;7.50;1.00
5304;DHT22;2674;49.722;10.892;2024-03-07T14:44:45;7.30;1.00
5304;DHT22;2674;49.722;10.892;2024-03-07T14:47:15;7.30;1.00
5304;DHT22;2674;49.722;10.892;2024-03-07T14:49:44;7.20;1.00
5304;DHT22;2674;49.722;10.892;2024-03-07T14:52:10;7.10;1.00
5304;DHT22;2674;49.722;10.892;2024-03-07T14:54:39;7.20;1.00
5304;DHT22;2674;49.722;10.892;2024-03-07T14:57:07;7.10;1.00
5304;DHT22;2674;49.722;10.892;2024-03-07T14:59:36;7.10;1.00
5304;DHT22;2674;49.722;10.892;2024-03-07T15:02:02;7.00;1.00
5304;DHT22;2674;49.722;10.892;2024-03-07T15:04:31;7.00;1.00
5304;DHT22;2674;49.722;10.892;2024-03-07T15:06:59;7.00;1.00
5304;DHT22;2674;49.722;10.892;2024-03-07T15:09:27;7.10;1.00
5304;DHT22;2674;49.722;10.892;2024-03-07T15:11:55;7.10;1.00
5304;DHT22;2674;49.722;10.892;2024-03-07T15:14:21;7.10;1.00
5304;DHT22;2674;49.722;10.892;2024-03-07T15:16:47;7.10;1.00
5304;DHT22;2674;49.722;10.892;2024-03-07T15:19:14;7.10;1.00
5304;DHT22;2674;49.722;10.892;2024-03-07T15:21:40;7.10;1.00
5304;DHT22;2674;49.722;10.892;2024-03-07T15:24:06;7.10;1.00
5304;DHT22;2674;49.722;10.892;2024-03-07T15:26:33;7.10;1.00
5304;DHT22;2674;49.722;10.892;2024-03-07T15:29:00;7.10;1.00
5304;DHT22;2674;49.722;10.892;2024-03-07T15:31:26;7.00;1.00
5304;DHT22;2674;49.722;10.892;2024-03-07T15:33:52;7.00;1.00
5304;DHT22;2674;49.722;10.892;2024-03-07T15:36:19;7.00;1.00
5304;DHT22;2674;49.722;10.892;2024-03-07T15:38:47;7.00;1.00
5304;DHT22;2674;49.722;10.892;2024-03-07T15:41:13;7.00;1.00
5304;DHT22;2674;49.722;10.892;2024-03-07T15:43:40;7.00;1.00
5304;DHT22;2674;49.722;10.892;2024-03-07T15:46:10;7.00;1.00
5304;DHT22;2674;49.722;10.892;2024-03-07T15:48:38;7.00;1.00
5304;DHT22;2674;49.722;10.892;2024-03-07T15:51:04;7.00;1.00
5304;DHT22;2674;49.722;10.892;2024-03-07T15:53:33;7.00;1.00
5304;DHT22;2674;49.722;10.892;2024-03-07T15:56:00;6.90;1.00
5304;DHT22;2674;49.722;10.892;2024-03-07T15:58:26;6.90;1.00
5304;DHT22;2674;49.722;10.892;2024-03-07T16:00:52;6.90;1.00
5304;DHT22;2674;49.722;10.892;2024-03-07T16:03:18;6.90;1.00
5304;DHT22;2674;49.722;10.892;2024-03-07T16:05:44;7.00;1.00
5304;DHT22;2674;49.722;10.892;2024-03-07T16:08:11;7.00;1.00
5304;DHT22;2674;49.722;10.892;2024-03-07T16:10:40;7.00;1.00
5304;DHT22;2674;49.722;10.892;2024-03-07T16:13:08;7.00;1.00
5304;DHT22;2674;49.722;10.892;2024-03-07T16:15:35;6.90;1.00
5304;DHT22;2674;49.722;10.892;2024-03-07T16:18:01;6.90;1.00
5304;DHT22;2674;49.722;10.892;2024-03-07T16:20:31;6.90;1.00
5304;DHT22;2674;49.722;10.892;2024-03-07T16:22:58;6.80;1.00
5304;DHT22;2674;49.722;10.892;2024-03-07T16:25:25;6.80;1.00
5304;DHT22;2674;49.722;10.892;2024-03-07T16:27:53;6.80;1.00
5304;DHT22;2674;49.722;10.892;2024-03-07T16:30:24;6.80;1.00
5304;DHT22;2674;49.722;10.892;2024-03-07T16:32:51;6.80;1.00
5304;DHT22;2674;49.722;10.892;2024-03-07T16:35:25;6.80;1.00
5304;DHT22;2674;49.722;10.892;2024-03-07T16:37:51;6.70;1.00
5304;DHT22;2674;49.722;10.892;2024-03-07T16:40:19;6.70;1.00
5304;DHT22;2674;49.722;10.892;2024-03-07T16:42:46;6.60;1.00
5304;DHT22;2674;49.722;10.892;2024-03-07T16:45:22;6.70;1.00
5304;DHT22;2674;49.722;10.892;2024-03-07T16:47:52;6.70;1.00
5304;DHT22;2674;49.722;10.892;2024-03-07T16:50:25;6.60;1.00